createdAt,value
2017-10-22T12:57:55.192Z,100457.62
2017-10-22T13:00:23.161Z,100449.11
2017-10-22T13:02:51.094Z,100449.67
2017-10-22T13:05:19.017Z,100446.20
2017-10-22T13:07:47.325Z,100450.97
2017-10-22T13:10:15.251Z,100450.17
2017-10-22T13:12:43.185Z,100444.57
2017-10-22T13:15:11.093Z,100445.91
2017-10-22T13:17:38.996Z,100450.45
2017-10-22T13:20:06.933Z,100447.08
2017-10-22T13:22:34.857Z,100445.83
2017-10-22T13:25:02.773Z,100450.23
2017-10-22T13:27:31.187Z,100444.39
2017-10-22T13:29:59.092Z,100439.95
2017-10-22T13:32:27.035Z,100439.48
2017-10-22T13:34:55.035Z,100443.31
2017-10-22T13:37:22.949Z,100441.06
2017-10-22T13:39:50.856Z,100445.10
2017-10-22T13:42:18.808Z,100452.56
2017-10-22T13:44:46.764Z,100453.52
2017-10-22T13:47:14.672Z,100461.00
2017-10-22T13:49:42.605Z,100457.97
2017-10-22T13:52:10.545Z,100454.98
2017-10-22T13:54:38.857Z,100462.48
2017-10-22T13:57:06.871Z,100465.22
2017-10-22T13:59:34.776Z,100468.88
2017-10-22T14:02:02.689Z,100465.92
2017-10-22T14:04:30.626Z,100465.45
2017-10-22T14:06:58.649Z,100476.39
2017-10-22T14:09:26.569Z,100480.47
2017-10-22T14:11:54.500Z,100474.77
2017-10-22T14:14:22.816Z,100476.13
2017-10-22T14:16:50.815Z,100475.34
2017-10-22T14:19:18.751Z,100473.19
2017-10-22T14:21:46.786Z,100476.76
2017-10-22T14:24:15.100Z,100473.28
2017-10-22T14:26:43.049Z,100469.80
2017-10-22T14:29:10.963Z,100474.67
2017-10-22T14:31:38.945Z,100475.55
2017-10-22T14:34:06.901Z,100475.47
2017-10-22T14:36:34.820Z,100477.64
2017-10-22T14:39:02.759Z,100474.19
2017-10-22T14:41:30.736Z,100476.36
2017-10-22T14:43:58.657Z,100480.73
2017-10-22T14:46:26.615Z,100481.75
2017-10-22T14:48:54.553Z,100480.98
2017-10-22T14:51:22.865Z,100480.65
2017-10-22T14:53:50.772Z,100479.35
2017-10-22T14:56:18.751Z,100481.54
2017-10-22T14:58:47.085Z,100478.03
2017-10-22T15:01:15.011Z,100485.52
2017-10-22T15:03:43.349Z,100483.77
2017-10-22T15:06:11.260Z,100492.02
2017-10-22T15:08:39.563Z,100490.71
2017-10-22T15:11:07.517Z,100499.53
2017-10-22T15:13:35.428Z,100502.20
2017-10-22T15:16:03.349Z,100496.52
2017-10-22T15:18:31.381Z,100501.77
2017-10-22T15:20:59.309Z,100498.70
2017-10-22T15:23:27.222Z,100496.09
2017-10-22T15:25:55.888Z,100500.91
2017-10-22T15:28:23.804Z,100500.89
2017-10-22T15:30:51.717Z,100503.14
2017-10-22T15:33:19.662Z,100503.58
2017-10-22T15:35:47.668Z,100501.83
2017-10-22T15:38:15.596Z,100503.15
2017-10-22T15:40:43.530Z,100502.70
2017-10-22T15:43:11.859Z,100508.83
2017-10-22T15:45:39.854Z,100509.74
2017-10-22T15:48:07.929Z,100513.23
2017-10-22T15:50:35.839Z,100512.80
2017-10-22T15:53:03.794Z,100520.67
2017-10-22T15:55:31.742Z,100517.64
2017-10-22T15:57:59.651Z,100519.38
2017-10-22T16:00:27.595Z,100525.09
2017-10-22T16:02:55.932Z,100521.98
2017-10-22T16:05:23.923Z,100518.48
2017-10-22T16:07:51.861Z,100522.45
2017-10-22T16:10:19.849Z,100520.23
2017-10-22T16:12:47.770Z,100520.27
2017-10-22T16:15:15.789Z,100518.52
2017-10-22T16:17:43.748Z,100525.97
2017-10-22T16:20:11.726Z,100526.80
2017-10-22T16:22:39.640Z,100531.21
2017-10-22T16:25:07.582Z,100531.64
2017-10-22T16:27:35.890Z,100534.22
2017-10-22T16:30:03.801Z,100533.80
2017-10-22T16:32:31.781Z,100531.17
2017-10-22T16:34:59.690Z,100528.13
2017-10-22T16:37:27.717Z,100532.48
2017-10-22T16:39:55.666Z,100528.13
2017-10-22T16:42:23.572Z,100529.43
2017-10-22T16:44:51.934Z,100527.70
2017-10-22T16:47:19.868Z,100525.94
2017-10-22T16:49:47.924Z,100534.23
2017-10-22T16:52:15.866Z,100541.65
2017-10-22T16:54:44.181Z,100541.66
2017-10-22T16:57:12.124Z,100539.03
2017-10-22T16:59:40.056Z,100531.17
2017-10-22T17:02:07.971Z,100544.27
2017-10-22T17:04:35.885Z,100545.58
2017-10-22T17:07:03.805Z,100545.56
2017-10-22T17:09:31.749Z,100535.53
2017-10-22T17:12:00.062Z,100540.77
2017-10-22T17:14:27.974Z,100547.29
2017-10-22T17:16:56.306Z,100540.77
2017-10-22T17:19:24.213Z,100541.20
2017-10-22T17:21:52.132Z,100546.00
2017-10-22T17:24:20.052Z,100548.62
2017-10-22T17:26:47.962Z,100552.56
2017-10-22T17:29:15.987Z,100557.79
2017-10-22T17:31:43.892Z,100549.93
2017-10-22T17:34:11.837Z,100553.41
2017-10-22T17:36:40.141Z,100551.23
2017-10-22T17:39:08.050Z,100554.72
2017-10-22T17:41:35.955Z,100550.79
2017-10-22T17:44:04.262Z,100554.70
2017-10-22T17:46:32.196Z,100554.70
2017-10-22T17:49:00.101Z,100556.91
2017-10-22T17:51:28.007Z,100556.88
2017-10-22T17:53:55.925Z,100554.72
2017-10-22T17:56:23.857Z,100552.50
2017-10-22T17:58:51.781Z,100559.00
2017-10-22T18:01:19.690Z,100556.38
2017-10-22T18:03:47.649Z,100549.34
2017-10-22T18:06:15.565Z,100546.70
2017-10-22T18:08:43.472Z,100545.38
2017-10-22T18:11:11.407Z,100550.20
2017-10-22T18:13:39.420Z,100544.95
2017-10-22T18:16:07.403Z,100554.98
2017-10-22T18:18:35.332Z,100555.41
2017-10-22T18:21:03.249Z,100553.64
2017-10-22T18:23:31.194Z,100552.34
2017-10-22T18:25:59.104Z,100558.44
2017-10-22T18:28:27.406Z,100553.22
2017-10-22T18:30:55.317Z,100548.42
2017-10-22T18:33:23.229Z,100550.64
2017-10-22T18:35:51.148Z,100553.67
2017-10-22T18:38:19.065Z,100550.16
2017-10-22T18:40:46.969Z,100556.77
2017-10-22T18:43:14.896Z,100554.58
2017-10-22T18:45:42.809Z,100555.05
2017-10-22T18:48:10.946Z,100555.87
2017-10-22T18:50:39.001Z,100554.62
2017-10-22T18:53:07.602Z,100552.80
2017-10-22T18:55:36.697Z,100551.97
2017-10-22T18:58:05.691Z,100553.33
2017-10-22T19:00:33.684Z,100563.36
2017-10-22T19:03:01.596Z,100555.91
2017-10-22T19:05:29.898Z,100559.36
2017-10-22T19:07:57.808Z,100560.73
2017-10-22T19:10:25.713Z,100562.92
2017-10-22T19:12:54.035Z,100563.80
2017-10-22T19:15:22.029Z,100562.86
2017-10-22T19:17:49.946Z,100558.94
2017-10-22T19:20:17.872Z,100559.88
2017-10-22T19:22:46.207Z,100557.23
2017-10-22T19:25:14.581Z,100555.94
2017-10-22T19:27:42.955Z,100556.38
2017-10-22T19:30:10.929Z,100554.19
2017-10-22T19:32:38.848Z,100559.88
2017-10-22T19:35:07.062Z,100562.44
2017-10-22T19:37:35.056Z,100564.13
2017-10-22T19:40:02.972Z,100562.41
2017-10-22T19:42:31.295Z,100567.64
2017-10-22T19:44:59.216Z,100572.91
2017-10-22T19:47:27.518Z,100570.33
2017-10-22T19:49:55.905Z,100575.54
2017-10-22T19:52:24.020Z,100569.44
2017-10-22T19:54:52.256Z,100569.03
2017-10-22T19:57:20.226Z,100577.30
2017-10-22T19:59:48.136Z,100577.77
2017-10-22T20:02:16.132Z,100579.49
2017-10-22T20:04:44.433Z,100579.05
2017-10-22T20:07:12.348Z,100584.30
2017-10-22T20:09:40.374Z,100580.33
2017-10-22T20:12:08.501Z,100578.12
2017-10-22T20:14:37.653Z,100582.49
2017-10-22T20:17:05.569Z,100582.95
2017-10-22T20:19:33.483Z,100579.44
2017-10-22T20:22:01.554Z,100580.31
2017-10-22T20:24:29.457Z,100586.36
2017-10-22T20:26:57.392Z,100575.47
2017-10-22T20:29:25.308Z,100581.59
2017-10-22T20:31:53.229Z,100577.17
2017-10-22T20:34:21.261Z,100585.48
2017-10-22T20:36:49.564Z,100585.44
2017-10-22T20:39:17.500Z,100586.77
2017-10-22T20:41:45.416Z,100593.76
2017-10-22T20:44:13.423Z,100588.95
2017-10-22T20:46:41.339Z,100592.00
2017-10-22T20:49:09.283Z,100592.76
2017-10-22T20:51:37.664Z,100597.13
2017-10-22T20:54:06.016Z,100593.19
2017-10-22T20:56:33.992Z,100601.55
2017-10-22T20:59:01.906Z,100597.21
2017-10-22T21:01:29.848Z,100606.38
2017-10-22T21:03:58.193Z,100608.16
2017-10-22T21:06:26.108Z,100606.39
2017-10-22T21:08:54.065Z,100612.02
2017-10-22T21:11:22.381Z,100610.31
2017-10-22T21:13:50.310Z,100613.83
2017-10-22T21:16:18.632Z,100610.39
2017-10-22T21:18:46.540Z,100609.45
2017-10-22T21:21:14.593Z,100604.64
2017-10-22T21:23:42.517Z,100597.71
2017-10-22T21:26:10.449Z,100605.12
2017-10-22T21:28:38.805Z,100605.10
2017-10-22T21:31:06.720Z,100607.70
2017-10-22T21:33:34.640Z,100609.02
2017-10-22T21:36:02.574Z,100614.67
2017-10-22T21:38:30.497Z,100612.95
2017-10-22T21:40:58.728Z,100612.56
2017-10-22T21:43:26.640Z,100622.18
2017-10-22T21:45:54.557Z,100616.09
2017-10-22T21:48:22.490Z,100619.63
2017-10-22T21:50:50.793Z,100620.05
2017-10-22T21:53:19.640Z,100626.08
2017-10-22T21:55:47.557Z,100626.52
2017-10-22T21:58:15.477Z,100623.48
2017-10-22T22:00:43.389Z,100624.79
2017-10-22T22:03:11.301Z,100625.22
2017-10-22T22:05:39.246Z,100619.45
2017-10-22T22:08:07.161Z,100622.09
2017-10-22T22:10:35.519Z,100622.55
2017-10-22T22:13:03.437Z,100626.02
2017-10-22T22:15:31.357Z,100622.89
2017-10-22T22:17:59.285Z,100620.28
2017-10-22T22:20:27.206Z,100621.08
2017-10-22T22:22:55.528Z,100627.72
2017-10-22T22:25:23.572Z,100625.01
2017-10-22T22:27:51.504Z,100621.91
2017-10-22T22:30:19.481Z,100624.55
2017-10-22T22:32:47.389Z,100623.66
2017-10-22T22:35:15.411Z,100621.42
2017-10-22T22:37:43.748Z,100620.56
2017-10-22T22:40:11.665Z,100625.80
2017-10-22T22:42:39.601Z,100632.77
2017-10-22T22:45:07.517Z,100628.34
2017-10-22T22:47:35.819Z,100630.94
2017-10-22T22:50:03.745Z,100628.81
2017-10-22T22:52:31.720Z,100630.55
2017-10-22T22:55:00.035Z,100626.69
2017-10-22T22:57:28.105Z,100641.03
2017-10-22T22:59:56.133Z,100637.56
2017-10-22T23:02:24.098Z,100638.95
2017-10-22T23:04:52.019Z,100642.45
2017-10-22T23:07:19.949Z,100636.34
2017-10-22T23:09:48.257Z,100636.02
2017-10-22T23:12:16.281Z,100636.02
2017-10-22T23:14:44.184Z,100641.65
2017-10-22T23:17:12.104Z,100642.54
2017-10-22T23:19:40.028Z,100646.92
2017-10-22T23:22:07.940Z,100641.22
2017-10-22T23:24:35.857Z,100641.20
2017-10-22T23:27:03.798Z,100643.39
2017-10-22T23:29:31.714Z,100642.58
2017-10-22T23:31:59.721Z,100653.02
2017-10-22T23:34:27.636Z,100647.32
2017-10-22T23:36:55.556Z,100655.09
2017-10-22T23:39:23.465Z,100647.31
2017-10-22T23:41:51.381Z,100649.98
2017-10-22T23:44:19.293Z,100650.45
2017-10-22T23:46:47.610Z,100649.63
2017-10-22T23:49:15.609Z,100646.50
2017-10-22T23:51:43.533Z,100644.77
2017-10-22T23:54:11.544Z,100638.61
2017-10-22T23:56:39.468Z,100636.48
2017-10-22T23:59:07.371Z,100641.68
